Pagrindinis puslapis
METAR-TAF:

METAR-TAF

Oro uostai :

Fernando de Noronija, Pernambuco, Brazilija

platuma: 03-51S, ilguma: 032-25W, Aukštis: 56 m

Dabartinis oras

Ataskaita buvo paskelbta 1 valandą ir 34 minutes, ne 22:00 UTC
Vėjas 12 kt iš Pietryčių
Temperatūra 26°C
Drėgmė 74%
Slėgis 1014 hPa
Matomumas 10 km arba daugiau
Išsisklaidę debesys ne aukštis 2000 ft

METAR: SBFN 162200Z 13012KT 9999 SCT020 26/21 Q1014

Laikas: 21:34 (23:34 UTC)

Prognozė

Ataskaita buvo paskelbta 7 valandos ir 34 minutes, ne 16:00 UTC
Prognozė galioja nuo 16 metu 18 UTC su 17 metu 06 UTC
Vėjas 15 kt iš Pietų/Pietryčių
Matomumas 10 km arba daugiau
Išsisklaidę debesys ne aukštis 2000 ft
Tapsmas
nuo 17 metu 00 UTC su 17 metu 02 UTC
Vėjas 8 kt iš Pietryčių
Mažai debesys ne aukštis 2000 ft

TAF: SBFN 161600Z 1618/1706 16015KT 9999 SCT020 TX29/1618Z TN25/1706Z BECMG 1700/1702 13008KT FEW020 RMK PAY

Orai ataskaitas ir orų prognozės (METAR, TAF).

turimą stotys yra geltonos ir raudonos taškus žemėlapyje.

Perkelti pele per norėdami pamatyti stoties vardą.

Tada spustelėkite, norėdami matyti oro stebėjimo ir prognozės.

Norėdami pakeisti žemėlapį: spustelėkite ant žalios mygtukų su juodo kryžiaus žemyn,; žalią mygtuką su brūkšneliu, jei norite nutolinti; arba žalių rodyklių gretimoms žemėlapius.


METAR-TAF: